Time;durP1;ratioP1;P1;durP2;ratioP2;P2;SDS_P1;SDS_P2;PMS_P1;PMS_P2;Temp;Humidity;BMP_temperature;BMP_pressure;BME280_temperature;BME280_humidity;BME280_pressure;Samples;Min_cycle;Max_cycle;Signal;HPM_P1;HPM_P2
2022/11/06 00:00:33;;;;;;;;;;;14.90;99.90;;;;;;5058722;28;19924;-59
2022/11/06 00:02:59;;;;;;;;;;;14.90;99.90;;;;;;5058676;28;19909;-59
2022/11/06 00:08:10;;;;;;;;;;;14.90;99.90;;;;;;5058253;28;19931;-59
2022/11/06 00:10:35;;;;;;;;;;;14.90;99.90;;;;;;5058645;28;19996;-59
2022/11/06 00:13:01;;;;;;;;;;;14.90;99.90;;;;;;5058488;28;19915;-59
2022/11/06 00:15:27;;;;;;;;;;;14.90;99.90;;;;;;5058241;28;19909;-59
2022/11/06 00:17:53;;;;;;;;;;;14.90;99.90;;;;;;5058319;28;19916;-59
2022/11/06 00:20:18;;;;;;;;;;;15.00;99.90;;;;;;5058312;28;19951;-60
2022/11/06 00:22:44;;;;;;;;;;;15.00;99.90;;;;;;5058172;28;19940;-59
2022/11/06 00:25:09;;;;;;;;;;;15.00;99.90;;;;;;5058066;28;19913;-59
2022/11/06 00:27:36;;;;;;;;;;;15.00;99.90;;;;;;5058283;28;19913;-59
2022/11/06 00:30:02;;;;;;;;;;;15.00;99.90;;;;;;5057794;28;20032;-59
2022/11/06 00:32:28;;;;;;;;;;;15.00;99.90;;;;;;5058028;28;19916;-60
2022/11/06 00:34:53;;;;;;;;;;;15.00;99.90;;;;;;5058139;28;19908;-60
2022/11/06 00:37:19;;;;;;;;;;;15.00;99.90;;;;;;5058094;28;19916;-60
2022/11/06 00:39:45;;;;;;;;;;;15.00;99.90;;;;;;5057948;28;20414;-60
2022/11/06 00:42:10;;;;;;;;;;;15.00;99.90;;;;;;5057794;28;19917;-60
2022/11/06 00:44:36;;;;;;;;;;;15.00;99.90;;;;;;5057719;28;19916;-60
2022/11/06 00:47:01;;;;;;;;;;;15.00;99.90;;;;;;5058025;28;19952;-60
2022/11/06 00:49:27;;;;;;;;;;;15.00;99.90;;;;;;5057731;28;19916;-60
2022/11/06 00:51:53;;;;;;;;;;;15.00;99.90;;;;;;5057943;28;19909;-60
2022/11/06 00:54:18;;;;;;;;;;;15.00;99.90;;;;;;5057619;28;19947;-60
2022/11/06 00:56:44;;;;;;;;;;;15.00;99.90;;;;;;5058146;28;19908;-60
2022/11/06 00:59:11;;;;;;;;;;;15.10;99.90;;;;;;5057800;28;19977;-60
2022/11/06 01:01:39;;;;;;;;;;;15.00;99.90;;;;;;5057610;28;20281;-60
2022/11/06 01:04:07;;;;;;;;;;;15.00;99.90;;;;;;5057777;28;19935;-60
2022/11/06 01:06:35;;;;;;;;;;;15.00;99.90;;;;;;5057814;28;19909;-60
2022/11/06 01:09:01;;;;;;;;;;;15.10;99.90;;;;;;5057656;28;19921;-60
2022/11/06 01:11:28;;;;;;;;;;;15.10;99.90;;;;;;5057925;28;19912;-60
2022/11/06 01:13:55;;;;;;;;;;;15.00;99.90;;;;;;5057304;28;19909;-60
2022/11/06 01:16:21;;;;;;;;;;;15.10;99.90;;;;;;5058894;28;19972;-60
2022/11/06 01:18:47;;;;;;;;;;;15.10;99.90;;;;;;5060164;28;19964;-60
2022/11/06 01:21:19;;;;;;;;;;;15.10;99.90;;;;;;5061810;28;19908;-60
2022/11/06 01:23:45;;;;;;;;;;;15.10;99.90;;;;;;5061636;28;19909;-60
2022/11/06 01:26:12;;;;;;;;;;;15.10;99.90;;;;;;5061505;28;19909;-60
2022/11/06 01:28:38;;;;;;;;;;;15.20;99.90;;;;;;5061939;28;19909;-60
2022/11/06 01:31:11;;;;;;;;;;;15.10;99.90;;;;;;5061648;28;19909;-60
2022/11/06 01:33:38;;;;;;;;;;;15.20;99.90;;;;;;5061593;28;19908;-60
2022/11/06 01:36:04;;;;;;;;;;;15.20;99.90;;;;;;5061275;28;20374;-60
2022/11/06 01:38:29;;;;;;;;;;;15.20;99.90;;;;;;5061098;28;19970;-60
2022/11/06 01:40:55;;;;;;;;;;;15.20;99.90;;;;;;5061651;28;19909;-60
2022/11/06 01:43:22;;;;;;;;;;;15.20;99.90;;;;;;5061215;28;19909;-60
2022/11/06 01:45:52;;;;;;;;;;;15.30;99.90;;;;;;5061031;28;19916;-60
2022/11/06 01:48:20;;;;;;;;;;;15.20;99.90;;;;;;5061087;28;20293;-60
2022/11/06 01:50:50;;;;;;;;;;;15.20;99.90;;;;;;5061088;28;19916;-60
2022/11/06 01:53:16;;;;;;;;;;;15.20;99.90;;;;;;5061112;28;19915;-60
2022/11/06 01:55:43;;;;;;;;;;;15.20;99.90;;;;;;5061028;28;19999;-60
2022/11/06 01:58:13;;;;;;;;;;;15.20;99.90;;;;;;5061000;28;19913;-60
2022/11/06 02:00:39;;;;;;;;;;;15.20;99.90;;;;;;5060868;28;19916;-60
2022/11/06 02:03:05;;;;;;;;;;;15.20;99.90;;;;;;5061032;28;19909;-60
2022/11/06 02:05:31;;;;;;;;;;;15.20;99.90;;;;;;5060700;28;19920;-60
2022/11/06 02:07:58;;;;;;;;;;;15.20;99.90;;;;;;5060333;28;20268;-60
2022/11/06 02:10:23;;;;;;;;;;;15.20;99.90;;;;;;5060741;28;19916;-60
2022/11/06 02:12:57;;;;;;;;;;;15.20;99.90;;;;;;5060846;28;19916;-60
2022/11/06 02:15:32;;;;;;;;;;;15.20;99.90;;;;;;5060971;28;19908;-60
2022/11/06 02:18:06;;;;;;;;;;;15.30;99.90;;;;;;5060716;28;19909;-60
2022/11/06 02:20:55;;;;;;;;;;;15.30;99.90;;;;;;5060735;28;19909;-60
2022/11/06 02:23:30;;;;;;;;;;;15.30;99.90;;;;;;5059364;28;19908;-60
2022/11/06 02:25:55;;;;;;;;;;;15.20;99.90;;;;;;5060328;28;19943;-60
2022/11/06 02:28:27;;;;;;;;;;;15.20;99.90;;;;;;5060086;28;20329;-60
2022/11/06 02:30:55;;;;;;;;;;;15.30;99.90;;;;;;5060475;28;19988;-60
2022/11/06 02:33:33;;;;;;;;;;;15.20;99.90;;;;;;5060315;28;19909;-60
2022/11/06 02:36:04;;;;;;;;;;;15.20;99.90;;;;;;5060281;28;19963;-60
2022/11/06 02:38:36;;;;;;;;;;;15.30;99.90;;;;;;5060149;28;19909;-60
2022/11/06 02:41:03;;;;;;;;;;;15.20;99.90;;;;;;5060321;28;19920;-60
2022/11/06 02:43:40;;;;;;;;;;;15.30;99.90;;;;;;5060308;28;19915;-60
2022/11/06 02:46:12;;;;;;;;;;;15.30;99.90;;;;;;5060069;28;20299;-60
2022/11/06 02:48:41;;;;;;;;;;;15.30;99.90;;;;;;5060432;28;19908;-61
2022/11/06 02:51:09;;;;;;;;;;;15.30;99.90;;;;;;5059920;28;20015;-62
2022/11/06 02:53:35;;;;;;;;;;;15.30;99.90;;;;;;5058514;28;19909;-62
2022/11/06 02:56:07;;;;;;;;;;;15.20;99.90;;;;;;5059854;28;19959;-62
2022/11/06 02:58:39;;;;;;;;;;;15.20;99.90;;;;;;5060008;28;20343;-61
2022/11/06 03:01:26;;;;;;;;;;;15.20;99.90;;;;;;5059722;28;20000;-61
2022/11/06 03:03:54;;;;;;;;;;;15.20;99.90;;;;;;5060193;28;19909;-62
2022/11/06 03:06:25;;;;;;;;;;;15.20;99.90;;;;;;5059794;28;19927;-61
2022/11/06 03:08:55;;;;;;;;;;;15.20;99.90;;;;;;5059639;28;20312;-61
2022/11/06 03:11:22;;;;;;;;;;;15.20;99.90;;;;;;5059558;28;19962;-61
2022/11/06 03:14:06;;;;;;;;;;;15.20;99.90;;;;;;5059714;28;19932;-61
2022/11/06 03:16:38;;;;;;;;;;;15.20;99.90;;;;;;5059687;28;19909;-61
2022/11/06 03:19:17;;;;;;;;;;;15.20;99.90;;;;;;5059680;28;19913;-61
2022/11/06 03:21:43;;;;;;;;;;;15.30;99.90;;;;;;5059608;28;19962;-61
2022/11/06 03:24:13;;;;;;;;;;;15.20;99.90;;;;;;5059424;28;20003;-61
2022/11/06 03:26:42;;;;;;;;;;;15.20;99.90;;;;;;5059278;28;19935;-61
2022/11/06 03:29:13;;;;;;;;;;;15.20;99.90;;;;;;5059519;28;19916;-60
2022/11/06 03:31:59;;;;;;;;;;;15.20;99.90;;;;;;5059146;28;19909;-60
2022/11/06 03:34:31;;;;;;;;;;;15.20;99.90;;;;;;5058880;28;19913;-61
2022/11/06 03:37:17;;;;;;;;;;;15.20;99.90;;;;;;5059523;28;19909;-61
2022/11/06 03:39:46;;;;;;;;;;;15.20;99.90;;;;;;5057846;28;19999;-62
2022/11/06 03:42:16;;;;;;;;;;;15.20;99.90;;;;;;5058965;28;20395;-61
2022/11/06 03:44:44;;;;;;;;;;;14.80;99.90;;;;;;5059062;28;20478;-61
2022/11/06 03:47:22;;;;;;;;;;;14.60;99.90;;;;;;5058857;28;19912;-61
2022/11/06 03:49:50;;;;;;;;;;;14.40;99.90;;;;;;5058986;28;19908;-61
2022/11/06 03:52:23;;;;;;;;;;;14.30;99.90;;;;;;5058967;28;20317;-61
2022/11/06 03:54:54;;;;;;;;;;;14.20;99.90;;;;;;5058936;28;19909;-60
2022/11/06 03:57:22;;;;;;;;;;;14.10;99.90;;;;;;5058951;28;19951;-60
2022/11/06 03:59:54;;;;;;;;;;;14.10;99.90;;;;;;5058587;28;19969;-60
2022/11/06 04:02:21;;;;;;;;;;;14.00;99.90;;;;;;5058523;28;19909;-60
2022/11/06 04:04:51;;;;;;;;;;;14.00;99.90;;;;;;5058256;28;20249;-60
2022/11/06 04:07:22;;;;;;;;;;;14.00;99.90;;;;;;5058528;28;20328;-60
2022/11/06 04:15:21;;;;;;;;;;;14.00;99.90;;;;;;5058344;28;19931;-60
2022/11/06 04:17:47;;;;;;;;;;;14.00;99.90;;;;;;5058491;28;20589;-60
2022/11/06 04:21:20;;;;;;;;;;;14.00;99.90;;;;;;5058324;28;19931;-60
2022/11/06 04:23:07;;;;;;;;;;;14.00;99.90;;;;;;5058043;28;19999;-60
2022/11/06 04:28:37;;;;;;;;;;;14.00;99.90;;;;;;5058245;28;19939;-60
2022/11/06 04:31:09;;;;;;;;;;;14.10;99.90;;;;;;5058143;28;19931;-60
2022/11/06 04:33:54;;;;;;;;;;;14.00;99.90;;;;;;5058184;28;19915;-60
2022/11/06 04:36:36;;;;;;;;;;;14.00;99.90;;;;;;5058492;28;19963;-60
2022/11/06 04:39:04;;;;;;;;;;;14.00;99.90;;;;;;5058027;28;19915;-59
2022/11/06 04:41:33;;;;;;;;;;;14.00;99.90;;;;;;5057816;28;20011;-60
2022/11/06 04:44:16;;;;;;;;;;;13.90;99.90;;;;;;5058028;28;19913;-60
2022/11/06 04:46:45;;;;;;;;;;;14.00;99.90;;;;;;5058038;28;20046;-60
2022/11/06 04:49:11;;;;;;;;;;;14.00;99.90;;;;;;5058052;28;19908;-60
2022/11/06 04:51:38;;;;;;;;;;;14.00;99.90;;;;;;5057693;28;19951;-60
2022/11/06 04:54:05;;;;;;;;;;;14.00;99.90;;;;;;5057816;28;20042;-60
2022/11/06 04:56:32;;;;;;;;;;;14.00;99.90;;;;;;5058232;28;19909;-60
2022/11/06 04:58:58;;;;;;;;;;;14.10;99.90;;;;;;5057733;28;19909;-60
2022/11/06 05:01:23;;;;;;;;;;;14.10;99.90;;;;;;5058063;28;19915;-60
2022/11/06 05:03:49;;;;;;;;;;;14.10;99.90;;;;;;5057830;28;19959;-60
2022/11/06 05:06:15;;;;;;;;;;;14.10;99.90;;;;;;5057934;28;20371;-60
2022/11/06 05:08:41;;;;;;;;;;;14.10;99.90;;;;;;5057442;28;20323;-60
2022/11/06 05:11:07;;;;;;;;;;;14.10;99.90;;;;;;5058255;28;19912;-60
2022/11/06 05:13:32;;;;;;;;;;;14.00;99.90;;;;;;5057654;28;19913;-60
2022/11/06 05:15:58;;;;;;;;;;;13.90;99.90;;;;;;5057778;28;19909;-60
2022/11/06 05:18:25;;;;;;;;;;;13.80;99.90;;;;;;5057592;28;20272;-60
2022/11/06 05:22:56;;;;;;;;;;;13.70;99.90;;;;;;5057542;28;20254;-59
2022/11/06 05:23:37;;;;;;;;;;;13.60;99.90;;;;;;5057445;28;20003;-60
2022/11/06 05:26:03;;;;;;;;;;;13.50;99.90;;;;;;5057509;28;19913;-60
2022/11/06 05:28:29;;;;;;;;;;;13.50;99.90;;;;;;5057645;28;20003;-60
2022/11/06 05:30:54;;;;;;;;;;;13.50;99.90;;;;;;5057673;28;19956;-60
2022/11/06 05:33:20;;;;;;;;;;;13.40;99.90;;;;;;5057670;28;20384;-60
2022/11/06 05:35:45;;;;;;;;;;;13.40;99.90;;;;;;5057655;28;19909;-60
2022/11/06 05:38:11;;;;;;;;;;;13.40;99.90;;;;;;5057381;28;19916;-60
2022/11/06 05:40:37;;;;;;;;;;;13.50;99.90;;;;;;5057405;28;19957;-60
2022/11/06 05:43:02;;;;;;;;;;;13.60;99.90;;;;;;5057520;28;19916;-60
2022/11/06 05:45:28;;;;;;;;;;;13.60;99.90;;;;;;5057237;28;20326;-60
2022/11/06 05:47:54;;;;;;;;;;;13.70;99.90;;;;;;5057092;28;19948;-60
2022/11/06 05:50:19;;;;;;;;;;;13.70;99.90;;;;;;5057500;28;19952;-60
2022/11/06 05:52:45;;;;;;;;;;;13.80;99.90;;;;;;5057268;28;19923;-60
2022/11/06 05:55:10;;;;;;;;;;;13.90;99.90;;;;;;5057165;28;19935;-60
2022/11/06 05:57:36;;;;;;;;;;;13.90;99.90;;;;;;5057153;28;19913;-60
2022/11/06 06:00:03;;;;;;;;;;;13.90;99.90;;;;;;5057148;28;19999;-60
2022/11/06 06:02:29;;;;;;;;;;;14.00;99.90;;;;;;5059068;28;19909;-60
2022/11/06 06:04:54;;;;;;;;;;;14.00;99.90;;;;;;5060924;28;19920;-60
2022/11/06 06:07:20;;;;;;;;;;;14.10;99.90;;;;;;5061268;28;20352;-60
2022/11/06 06:09:45;;;;;;;;;;;14.10;99.90;;;;;;5060410;28;19921;-60
2022/11/06 06:12:12;;;;;;;;;;;14.10;99.90;;;;;;5061177;28;19909;-60
2022/11/06 06:14:38;;;;;;;;;;;14.10;99.90;;;;;;5060623;28;19909;-60
2022/11/06 06:17:03;;;;;;;;;;;14.20;99.90;;;;;;5060853;28;19931;-60
2022/11/06 06:19:29;;;;;;;;;;;14.20;99.90;;;;;;5060581;28;19909;-60
2022/11/06 06:21:54;;;;;;;;;;;14.20;99.90;;;;;;5060984;28;20388;-60
2022/11/06 06:24:20;;;;;;;;;;;14.20;99.90;;;;;;5060607;28;19920;-60
2022/11/06 06:26:46;;;;;;;;;;;14.30;99.90;;;;;;5060574;28;19924;-60
2022/11/06 06:29:11;;;;;;;;;;;14.30;99.90;;;;;;5060555;28;19924;-60
2022/11/06 06:31:37;;;;;;;;;;;14.30;99.90;;;;;;5060520;28;19908;-60
2022/11/06 06:34:02;;;;;;;;;;;14.40;99.90;;;;;;5060292;28;19915;-60
2022/11/06 06:36:28;;;;;;;;;;;14.40;99.90;;;;;;5060720;28;19916;-60
2022/11/06 06:38:54;;;;;;;;;;;14.40;99.90;;;;;;5060369;28;19932;-60
2022/11/06 06:41:20;;;;;;;;;;;14.40;99.90;;;;;;5060521;28;19915;-60
2022/11/06 06:43:48;;;;;;;;;;;14.30;99.90;;;;;;5060255;28;19915;-60
2022/11/06 06:46:14;;;;;;;;;;;14.30;99.90;;;;;;5059882;28;19920;-60
2022/11/06 06:48:40;;;;;;;;;;;14.30;99.90;;;;;;5060030;28;19909;-60
2022/11/06 06:51:06;;;;;;;;;;;14.20;99.90;;;;;;5060224;28;19913;-60
2022/11/06 06:53:32;;;;;;;;;;;14.20;99.90;;;;;;5059835;28;19908;-60
2022/11/06 06:56:01;;;;;;;;;;;14.20;99.90;;;;;;5060088;28;20268;-60
2022/11/06 06:58:28;;;;;;;;;;;14.10;99.90;;;;;;5059762;28;19951;-60
2022/11/06 07:00:54;;;;;;;;;;;14.10;99.90;;;;;;5059409;28;19909;-60
2022/11/06 07:03:20;;;;;;;;;;;14.10;99.90;;;;;;5059686;28;19908;-60
2022/11/06 07:05:46;;;;;;;;;;;14.10;99.90;;;;;;5059447;28;20406;-60
2022/11/06 07:08:12;;;;;;;;;;;14.10;99.90;;;;;;5059269;28;20334;-60
2022/11/06 07:10:37;;;;;;;;;;;14.10;99.90;;;;;;5059690;28;20012;-60
2022/11/06 07:13:03;;;;;;;;;;;14.20;99.90;;;;;;5058215;28;19909;-60
2022/11/06 07:15:29;;;;;;;;;;;14.20;99.90;;;;;;5058830;28;19909;-60
2022/11/06 07:17:59;;;;;;;;;;;14.20;99.90;;;;;;5059684;28;20272;-60
2022/11/06 07:20:25;;;;;;;;;;;14.20;99.90;;;;;;5059298;28;19909;-60
2022/11/06 07:22:51;;;;;;;;;;;14.20;99.90;;;;;;5059199;28;19909;-60
2022/11/06 07:25:16;;;;;;;;;;;14.20;99.90;;;;;;5059334;28;19917;-60
2022/11/06 07:27:42;;;;;;;;;;;14.20;99.90;;;;;;5059366;28;19980;-60
2022/11/06 07:30:08;;;;;;;;;;;14.20;99.90;;;;;;5058817;28;19909;-60
2022/11/06 07:32:33;;;;;;;;;;;14.20;99.90;;;;;;5057736;28;20372;-60
2022/11/06 07:34:59;;;;;;;;;;;14.30;99.90;;;;;;5059155;28;19916;-60
2022/11/06 07:37:25;;;;;;;;;;;14.30;99.90;;;;;;5058962;28;19962;-60
2022/11/06 07:39:50;;;;;;;;;;;14.30;99.90;;;;;;5059421;28;20435;-60
2022/11/06 07:42:16;;;;;;;;;;;14.20;99.90;;;;;;5058738;28;19913;-60
2022/11/06 07:44:41;;;;;;;;;;;14.20;99.90;;;;;;5059036;28;19917;-60
2022/11/06 07:47:07;;;;;;;;;;;14.20;99.90;;;;;;5059111;28;19909;-60
2022/11/06 07:49:33;;;;;;;;;;;14.30;99.90;;;;;;5058881;28;19915;-60
2022/11/06 07:51:58;;;;;;;;;;;14.20;99.90;;;;;;5058894;28;19909;-60
2022/11/06 07:54:24;;;;;;;;;;;14.30;99.90;;;;;;5059087;28;19943;-60
2022/11/06 07:56:50;;;;;;;;;;;14.30;99.90;;;;;;5058825;28;20372;-60
2022/11/06 07:59:15;;;;;;;;;;;14.20;99.90;;;;;;5058725;28;19916;-60
2022/11/06 08:01:41;;;;;;;;;;;14.30;99.90;;;;;;5058745;28;19909;-60
2022/11/06 08:04:07;;;;;;;;;;;14.20;99.90;;;;;;5058383;28;19987;-60
2022/11/06 08:06:32;;;;;;;;;;;14.20;99.90;;;;;;5058677;28;19909;-60
2022/11/06 08:08:58;;;;;;;;;;;14.20;99.90;;;;;;5058259;28;19921;-60
2022/11/06 08:11:24;;;;;;;;;;;14.20;99.90;;;;;;5058492;28;20360;-60
2022/11/06 08:13:49;;;;;;;;;;;14.20;99.90;;;;;;5058500;28;20369;-60
2022/11/06 08:16:15;;;;;;;;;;;14.30;99.90;;;;;;5058023;28;19909;-60
2022/11/06 08:18:41;;;;;;;;;;;14.30;99.90;;;;;;5058053;28;19913;-60
2022/11/06 08:21:06;;;;;;;;;;;14.30;99.90;;;;;;5058403;28;19913;-61
2022/11/06 08:23:33;;;;;;;;;;;14.40;99.90;;;;;;5057959;28;19909;-60
2022/11/06 08:26:00;;;;;;;;;;;14.40;99.90;;;;;;5057647;28;19919;-61
2022/11/06 08:28:26;;;;;;;;;;;14.50;99.90;;;;;;5058310;28;19923;-60
2022/11/06 08:30:52;;;;;;;;;;;14.50;99.90;;;;;;5057835;28;19955;-61
2022/11/06 08:33:18;;;;;;;;;;;14.60;99.90;;;;;;5057718;28;19909;-60
2022/11/06 08:35:44;;;;;;;;;;;14.60;99.90;;;;;;5057892;28;20691;-60
2022/11/06 08:38:10;;;;;;;;;;;14.70;99.90;;;;;;5058121;28;19950;-60
2022/11/06 08:40:37;;;;;;;;;;;14.70;99.90;;;;;;5057839;28;19909;-61
2022/11/06 08:43:03;;;;;;;;;;;14.70;99.90;;;;;;5057881;28;19955;-60
2022/11/06 08:45:29;;;;;;;;;;;14.70;99.90;;;;;;5057680;28;19966;-60
2022/11/06 08:47:59;;;;;;;;;;;14.70;99.90;;;;;;5057964;28;19909;-60
2022/11/06 08:50:24;;;;;;;;;;;14.70;99.90;;;;;;5057874;28;19964;-61
2022/11/06 08:52:50;;;;;;;;;;;14.70;99.90;;;;;;5057946;28;20412;-61
2022/11/06 08:55:15;;;;;;;;;;;14.60;99.90;;;;;;5057891;28;19909;-61
2022/11/06 08:57:41;;;;;;;;;;;14.50;99.90;;;;;;5058032;28;19931;-61
2022/11/06 09:00:07;;;;;;;;;;;14.50;99.90;;;;;;5057560;28;19912;-61
2022/11/06 09:02:33;;;;;;;;;;;14.40;99.90;;;;;;5057683;28;19909;-61
2022/11/06 09:04:58;;;;;;;;;;;14.40;99.90;;;;;;5057593;28;19917;-61
2022/11/06 09:07:24;;;;;;;;;;;14.40;99.90;;;;;;5057652;28;19919;-61
2022/11/06 09:09:49;;;;;;;;;;;14.30;99.90;;;;;;5057592;28;19935;-61
2022/11/06 09:12:15;;;;;;;;;;;14.30;99.90;;;;;;5057664;28;19944;-60
2022/11/06 09:14:41;;;;;;;;;;;14.30;99.90;;;;;;5057661;28;20364;-60
2022/11/06 09:17:06;;;;;;;;;;;14.30;99.90;;;;;;5057814;28;19936;-61
2022/11/06 09:19:32;;;;;;;;;;;14.40;99.90;;;;;;5057770;28;19913;-61
2022/11/06 09:21:57;;;;;;;;;;;14.50;99.90;;;;;;5057727;28;19909;-61
2022/11/06 09:24:23;;;;;;;;;;;14.70;99.90;;;;;;5057691;28;20288;-60
2022/11/06 09:26:49;;;;;;;;;;;15.00;99.90;;;;;;5057688;28;20368;-61
2022/11/06 09:29:14;;;;;;;;;;;15.20;99.90;;;;;;5057466;28;19921;-61
2022/11/06 09:31:41;;;;;;;;;;;15.30;99.90;;;;;;5057544;28;19959;-61
2022/11/06 09:34:07;;;;;;;;;;;15.10;99.90;;;;;;5057536;28;19916;-61
2022/11/06 09:36:34;;;;;;;;;;;15.00;99.90;;;;;;5057633;28;19908;-61
2022/11/06 09:38:59;;;;;;;;;;;15.00;99.90;;;;;;5061395;28;19908;-60
2022/11/06 09:41:25;;;;;;;;;;;14.90;99.90;;;;;;5061525;28;19909;-61
2022/11/06 09:43:57;;;;;;;;;;;15.00;99.90;;;;;;5061443;28;19940;-61
2022/11/06 09:46:25;;;;;;;;;;;15.00;99.90;;;;;;5061437;28;19951;-60
2022/11/06 09:49:13;;;;;;;;;;;15.10;99.90;;;;;;5061354;28;20341;-60
2022/11/06 09:51:42;;;;;;;;;;;15.10;99.90;;;;;;5060548;28;19909;-60
2022/11/06 09:54:16;;;;;;;;;;;15.10;99.90;;;;;;5061295;28;19909;-61
2022/11/06 09:56:42;;;;;;;;;;;15.10;99.90;;;;;;5060985;28;20288;-61
2022/11/06 09:59:10;;;;;;;;;;;15.30;99.90;;;;;;5061039;28;19909;-61
2022/11/06 10:01:53;;;;;;;;;;;15.50;99.90;;;;;;5060787;28;20282;-61
2022/11/06 10:04:28;;;;;;;;;;;16.00;99.90;;;;;;5060936;28;19919;-61
2022/11/06 10:06:54;;;;;;;;;;;16.30;99.90;;;;;;5061049;28;19940;-60
2022/11/06 10:09:20;;;;;;;;;;;16.30;99.90;;;;;;5060483;28;19928;-61
2022/11/06 10:12:01;;;;;;;;;;;16.70;99.90;;;;;;5060381;28;20003;-61
2022/11/06 10:14:38;;;;;;;;;;;16.70;99.90;;;;;;5060918;28;20382;-61
2022/11/06 10:17:10;;;;;;;;;;;16.40;99.90;;;;;;5060723;28;19913;-60
2022/11/06 10:19:36;;;;;;;;;;;16.30;99.90;;;;;;5060359;28;19916;-61
2022/11/06 10:22:04;;;;;;;;;;;16.20;99.90;;;;;;5060686;28;19909;-60
2022/11/06 10:24:46;;;;;;;;;;;15.70;99.90;;;;;;5060260;28;19920;-60
2022/11/06 10:27:32;;;;;;;;;;;15.60;99.90;;;;;;5060913;28;19935;-60
2022/11/06 10:30:17;;;;;;;;;;;15.40;99.90;;;;;;5059975;28;19978;-60
2022/11/06 10:33:02;;;;;;;;;;;15.20;99.90;;;;;;5060223;28;19924;-60
2022/11/06 10:35:36;;;;;;;;;;;15.20;99.90;;;;;;5060425;28;19967;-60
2022/11/06 10:38:04;;;;;;;;;;;15.10;99.90;;;;;;5059963;28;20007;-60
2022/11/06 10:40:31;;;;;;;;;;;15.50;99.90;;;;;;5060374;28;19955;-60
2022/11/06 10:43:09;;;;;;;;;;;16.20;99.90;;;;;;5060062;28;19913;-60
2022/11/06 10:45:35;;;;;;;;;;;17.00;99.90;;;;;;5060151;28;19917;-61
2022/11/06 10:48:05;;;;;;;;;;;17.80;99.90;;;;;;5059851;28;20371;-61
2022/11/06 10:50:57;;;;;;;;;;;18.30;99.90;;;;;;5060181;28;19954;-61
2022/11/06 10:53:28;;;;;;;;;;;18.60;99.90;;;;;;5059029;28;19932;-61
2022/11/06 10:56:01;;;;;;;;;;;19.10;99.90;;;;;;5060075;28;19944;-60
2022/11/06 10:58:32;;;;;;;;;;;19.40;99.90;;;;;;5059756;28;19908;-61
2022/11/06 11:01:00;;;;;;;;;;;19.20;99.90;;;;;;5059967;28;19913;-61
2022/11/06 11:03:38;;;;;;;;;;;19.60;99.90;;;;;;5059682;28;19909;-61
2022/11/06 11:06:04;;;;;;;;;;;20.10;99.90;;;;;;5059681;28;19936;-61
2022/11/06 11:08:30;;;;;;;;;;;20.30;99.90;;;;;;5059902;28;19921;-61
2022/11/06 11:11:14;;;;;;;;;;;20.60;99.90;;;;;;5059623;28;20391;-61
2022/11/06 11:13:40;;;;;;;;;;;20.70;99.90;;;;;;5059700;28;19908;-61
2022/11/06 11:16:17;;;;;;;;;;;20.40;99.90;;;;;;5059632;28;20335;-61
2022/11/06 11:18:43;;;;;;;;;;;20.40;99.40;;;;;;5059010;28;20296;-60
2022/11/06 11:21:15;;;;;;;;;;;20.00;97.50;;;;;;5059587;28;19909;-60
2022/11/06 11:23:40;;;;;;;;;;;20.20;99.90;;;;;;5059174;28;20399;-61
2022/11/06 11:26:21;;;;;;;;;;;20.60;97.50;;;;;;5059557;28;19913;-61
2022/11/06 11:28:51;;;;;;;;;;;21.10;99.90;;;;;;5059276;28;19920;-61
2022/11/06 11:31:17;;;;;;;;;;;20.80;97.40;;;;;;5059275;28;20376;-61
2022/11/06 11:33:51;;;;;;;;;;;20.40;97.50;;;;;;5058986;28;19912;-61
2022/11/06 11:36:17;;;;;;;;;;;19.50;96.90;;;;;;5059025;28;19908;-60
2022/11/06 11:38:43;;;;;;;;;;;19.20;99.80;;;;;;5059252;28;19913;-60
2022/11/06 11:41:13;;;;;;;;;;;18.90;98.60;;;;;;5058997;28;19948;-60
2022/11/06 11:43:39;;;;;;;;;;;18.50;99.90;;;;;;5059016;28;20039;-60
2022/11/06 11:46:08;;;;;;;;;;;18.60;99.90;;;;;;5058608;28;19913;-60
2022/11/06 11:48:47;;;;;;;;;;;18.70;97.30;;;;;;5058891;28;19916;-60
2022/11/06 11:51:18;;;;;;;;;;;18.90;98.70;;;;;;5058950;28;19908;-61
2022/11/06 11:53:44;;;;;;;;;;;19.30;97.40;;;;;;5058646;28;19908;-61
2022/11/06 11:56:14;;;;;;;;;;;19.90;98.70;;;;;;5059104;28;19963;-60
2022/11/06 11:58:47;;;;;;;;;;;20.40;93.60;;;;;;5058467;28;19948;-61
2022/11/06 12:01:12;;;;;;;;;;;20.10;96.70;;;;;;5058372;28;19908;-60
2022/11/06 12:03:42;;;;;;;;;;;19.80;95.00;;;;;;5058378;28;19986;-60
2022/11/06 12:06:09;;;;;;;;;;;19.70;95.40;;;;;;5058453;28;19980;-60
2022/11/06 12:08:36;;;;;;;;;;;19.60;96.80;;;;;;5058251;28;19970;-60
2022/11/06 12:11:03;;;;;;;;;;;19.70;96.90;;;;;;5058634;28;19909;-61
2022/11/06 12:13:28;;;;;;;;;;;19.90;95.70;;;;;;5058302;28;19908;-61
2022/11/06 12:15:59;;;;;;;;;;;19.90;96.40;;;;;;5058184;28;19916;-61
2022/11/06 12:18:27;;;;;;;;;;;20.10;97.00;;;;;;5058282;28;19909;-61
2022/11/06 12:21:02;;;;;;;;;;;19.90;95.80;;;;;;5057762;28;20262;-61
2022/11/06 12:23:31;;;;;;;;;;;19.80;94.20;;;;;;5058139;28;19908;-61
2022/11/06 12:26:15;;;;;;;;;;;19.90;95.80;;;;;;5058553;28;19920;-61
2022/11/06 12:28:43;;;;;;;;;;;19.50;92.70;;;;;;5058052;28;19935;-61
2022/11/06 12:31:16;;;;;;;;;;;19.40;94.90;;;;;;5058097;28;19916;-61
2022/11/06 12:33:42;;;;;;;;;;;19.50;94.70;;;;;;5058207;28;19955;-62
2022/11/06 12:36:13;;;;;;;;;;;19.70;95.80;;;;;;5058169;28;19959;-61
2022/11/06 12:38:47;;;;;;;;;;;20.40;96.10;;;;;;5057968;28;19916;-61
2022/11/06 12:41:16;;;;;;;;;;;20.50;95.10;;;;;;5058064;28;19970;-60
2022/11/06 12:43:43;;;;;;;;;;;20.10;94.80;;;;;;5058082;28;19913;-60
2022/11/06 12:46:08;;;;;;;;;;;19.50;93.30;;;;;;5057771;28;19912;-60
2022/11/06 12:48:34;;;;;;;;;;;19.30;95.20;;;;;;5057975;28;19909;-60
2022/11/06 12:51:00;;;;;;;;;;;19.00;94.40;;;;;;5058098;28;19909;-60
2022/11/06 12:53:40;;;;;;;;;;;18.30;92.90;;;;;;5057896;28;19913;-60
2022/11/06 12:56:23;;;;;;;;;;;17.80;94.60;;;;;;5057791;28;20372;-60
2022/11/06 12:58:49;;;;;;;;;;;17.70;96.00;;;;;;5057910;28;19911;-60
2022/11/06 13:01:30;;;;;;;;;;;17.60;96.20;;;;;;5057614;28;19916;-60
2022/11/06 13:04:16;;;;;;;;;;;17.60;97.70;;;;;;5057466;28;19909;-60
2022/11/06 13:07:00;;;;;;;;;;;18.10;98.80;;;;;;5057783;28;19935;-60
2022/11/06 13:09:26;;;;;;;;;;;18.50;97.10;;;;;;5057179;28;19921;-60
2022/11/06 13:11:58;;;;;;;;;;;18.70;96.80;;;;;;5060003;28;20395;-60
2022/11/06 13:14:30;;;;;;;;;;;18.90;95.10;;;;;;5061944;28;19924;-61
2022/11/06 13:17:00;;;;;;;;;;;19.30;94.90;;;;;;5061471;28;19909;-61
2022/11/06 13:19:26;;;;;;;;;;;19.80;95.80;;;;;;5061546;28;19912;-61
2022/11/06 13:21:51;;;;;;;;;;;20.00;95.30;;;;;;5061123;28;19963;-61
2022/11/06 13:24:21;;;;;;;;;;;20.20;95.10;;;;;;5061191;28;19912;-61
2022/11/06 13:26:52;;;;;;;;;;;20.40;93.80;;;;;;5061616;28;20292;-61
2022/11/06 13:29:18;;;;;;;;;;;20.30;92.30;;;;;;5061649;28;19909;-61
2022/11/06 13:31:47;;;;;;;;;;;20.40;95.10;;;;;;5061783;28;19909;-60
2022/11/06 13:34:20;;;;;;;;;;;20.00;93.40;;;;;;5061138;28;19916;-60
2022/11/06 13:36:46;;;;;;;;;;;19.90;93.90;;;;;;5061099;28;19909;-61
2022/11/06 13:39:25;;;;;;;;;;;20.00;94.50;;;;;;5061180;28;19935;-61
2022/11/06 13:41:51;;;;;;;;;;;20.30;92.40;;;;;;5061151;28;19909;-61
2022/11/06 13:44:18;;;;;;;;;;;20.40;92.10;;;;;;5061280;28;19912;-61
2022/11/06 13:47:04;;;;;;;;;;;20.40;93.10;;;;;;5060950;28;19908;-61
2022/11/06 13:49:48;;;;;;;;;;;20.30;92.10;;;;;;5059956;28;20331;-60
2022/11/06 13:52:20;;;;;;;;;;;20.20;89.70;;;;;;5061343;28;19909;-60
2022/11/06 13:54:59;;;;;;;;;;;20.10;92.80;;;;;;5061027;28;20003;-60
2022/11/06 13:57:50;;;;;;;;;;;20.20;85.90;;;;;;5060726;28;19909;-60
2022/11/06 14:00:23;;;;;;;;;;;20.10;91.30;;;;;;5060562;28;19909;-60
2022/11/06 14:03:12;;;;;;;;;;;20.00;88.40;;;;;;5061269;28;19909;-60
2022/11/06 14:05:56;;;;;;;;;;;20.00;91.50;;;;;;5060947;28;19951;-60
2022/11/06 14:08:30;;;;;;;;;;;20.00;91.50;;;;;;5060549;28;19917;-60
2022/11/06 14:11:02;;;;;;;;;;;20.00;88.80;;;;;;5060837;28;19909;-60
2022/11/06 14:13:31;;;;;;;;;;;19.90;92.70;;;;;;5060892;28;19913;-60
2022/11/06 14:16:19;;;;;;;;;;;20.10;90.90;;;;;;5060992;28;19931;-60
2022/11/06 14:18:55;;;;;;;;;;;19.90;90.30;;;;;;5059899;28;20007;-60
2022/11/06 14:21:41;;;;;;;;;;;19.70;91.90;;;;;;5060363;28;19909;-60
2022/11/06 14:24:16;;;;;;;;;;;19.90;90.80;;;;;;5059680;28;19925;-60
2022/11/06 14:26:43;;;;;;;;;;;19.80;88.90;;;;;;5060386;28;19909;-60
2022/11/06 14:29:27;;;;;;;;;;;19.50;90.20;;;;;;5060748;28;19909;-60
2022/11/06 14:32:05;;;;;;;;;;;19.10;90.70;;;;;;5060478;28;19909;-60
2022/11/06 14:34:33;;;;;;;;;;;18.70;90.50;;;;;;5060234;28;19908;-60
2022/11/06 14:37:19;;;;;;;;;;;18.70;90.80;;;;;;5060354;28;19909;-60
2022/11/06 14:39:53;;;;;;;;;;;18.70;93.60;;;;;;5058720;28;19909;-60